Time;durP1;ratioP1;P1;durP2;ratioP2;P2;SDS_P1;SDS_P2;PMS_P1;PMS_P2;Temp;Humidity;BMP_temperature;BMP_pressure;BME280_temperature;BME280_humidity;BME280_pressure;Samples;Min_cycle;Max_cycle;Signal;HPM_P1;HPM_P2
2023/06/02 00:00:16;;;;;;;5.13;1.73;;;;;;;15.95;100.00;100104.91;10417644;28;20037;-67
2023/06/02 00:05:17;;;;;;;5.97;1.40;;;;;;;15.81;100.00;100109.47;10416981;28;20092;-67
2023/06/02 00:10:18;;;;;;;3.97;1.60;;;;;;;15.33;100.00;100060.66;10417753;28;20064;-67
2023/06/02 00:15:18;;;;;;;4.47;1.70;;;;;;;15.70;100.00;100129.69;10416977;28;20128;-67
2023/06/02 00:20:20;;;;;;;4.93;1.50;;;;;;;15.05;100.00;100035.75;10417694;28;20408;-67
2023/06/02 00:25:21;;;;;;;7.93;2.03;;;;;;;15.70;100.00;100132.34;10416912;28;20037;-67
2023/06/02 00:30:22;;;;;;;6.35;2.00;;;;;;;15.78;100.00;100128.63;10416902;28;20041;-67
2023/06/02 00:35:24;;;;;;;5.85;1.80;;;;;;;15.79;100.00;100143.66;10416623;28;20480;-67
2023/06/02 00:40:24;;;;;;;11.80;2.13;;;;;;;15.24;100.00;100057.34;10416712;28;20038;-67
2023/06/02 00:45:25;;;;;;;10.55;2.35;;;;;;;15.67;100.00;100135.41;10416363;28;20041;-67
2023/06/02 00:50:27;;;;;;;10.32;2.10;;;;;;;15.81;100.00;100146.13;10398403;28;20037;-67
2023/06/02 00:55:30;;;;;;;6.70;1.90;;;;;;;15.90;100.00;100169.81;10415895;28;20080;-67
2023/06/02 01:00:36;;;;;;;9.27;2.40;;;;;;;15.49;100.00;100101.19;10415786;28;20038;-67
2023/06/02 01:05:37;;;;;;;8.95;2.70;;;;;;;15.83;100.00;100152.13;10415482;28;20038;-67
2023/06/02 01:10:39;;;;;;;19.55;3.47;;;;;;;15.83;100.00;100163.66;10415586;28;20516;-67
2023/06/02 01:15:39;;;;;;;12.48;2.47;;;;;;;15.88;100.00;100171.06;10414209;28;20069;-67
2023/06/02 01:20:52;;;;;;;15.13;2.15;;;;;;;15.83;100.00;100171.69;10414963;28;20068;-67
2023/06/02 01:25:53;;;;;;;10.50;2.42;;;;;;;15.73;100.00;100155.19;10414039;28;20535;-67
2023/06/02 01:31:06;;;;;;;18.92;2.53;;;;;;;15.38;100.00;100093.81;10413909;28;20052;-68
2023/06/02 01:36:07;;;;;;;22.50;3.30;;;;;;;15.27;100.00;100099.75;10396931;28;20033;-67
2023/06/02 01:41:09;;;;;;;21.90;2.80;;;;;;;15.69;100.00;100176.22;10414121;28;20128;-67
2023/06/02 01:46:11;;;;;;;11.00;2.60;;;;;;;15.32;100.00;100125.91;10413350;28;20041;-67
2023/06/02 01:51:12;;;;;;;9.35;2.40;;;;;;;15.10;100.00;100079.78;10413125;28;20041;-67
2023/06/02 01:56:12;;;;;;;15.50;2.63;;;;;;;15.76;100.00;100181.56;10418067;28;20178;-68
2023/06/02 02:01:13;;;;;;;12.77;2.58;;;;;;;15.79;100.00;100174.97;10427343;28;20048;-67
2023/06/02 02:06:14;;;;;;;18.23;2.88;;;;;;;15.78;100.00;100187.53;10413193;28;20535;-67
2023/06/02 02:11:15;;;;;;;11.13;2.30;;;;;;;16.04;100.00;100210.00;10413478;28;20539;-67
2023/06/02 02:16:15;;;;;;;4.20;1.63;;;;;;;16.08;100.00;100219.28;10413205;28;20046;-67
2023/06/02 02:21:16;;;;;;;8.02;2.35;;;;;;;16.18;100.00;100239.28;10412925;28;20091;-67
2023/06/02 02:26:18;;;;;;;15.90;2.75;;;;;;;16.24;100.00;100138.44;10419106;28;20148;-67
2023/06/02 02:31:19;;;;;;;8.07;2.00;;;;;;;17.33;100.00;100230.69;10420782;28;20047;-67
2023/06/02 02:36:20;;;;;;;15.63;2.35;;;;;;;17.50;100.00;100100.25;10421742;28;20042;-67
2023/06/02 02:41:21;;;;;;;10.75;1.90;;;;;;;19.30;100.00;100222.88;10421171;28;20444;-67
2023/06/02 02:46:22;;;;;;;3.78;1.50;;;;;;;20.44;100.00;100244.31;10420314;28;20520;-67
2023/06/02 02:51:22;;;;;;;8.52;1.50;;;;;;;21.46;95.42;100237.53;10419888;28;20045;-67
2023/06/02 02:56:23;;;;;;;4.22;1.50;;;;;;;21.25;90.06;100116.63;10419863;28;20041;-67
2023/06/02 03:01:26;;;;;;;3.75;1.38;;;;;;;21.96;87.89;100241.38;10420584;28;20144;-67
2023/06/02 03:06:31;;;;;;;4.47;1.60;;;;;;;22.14;86.03;100249.25;10420358;28;20045;-67
2023/06/02 03:11:32;;;;;;;4.65;1.60;;;;;;;22.45;82.39;100244.31;10419827;28;20052;-67
2023/06/02 03:16:34;;;;;;;4.30;1.42;;;;;;;22.75;81.75;100250.16;10443957;28;20056;-67
2023/06/02 03:21:41;;;;;;;6.60;1.70;;;;;;;23.00;81.56;100248.84;10428372;28;20044;-67
2023/06/02 03:26:43;;;;;;;4.82;1.50;;;;;;;23.85;78.78;100230.25;10460468;28;20037;-67
2023/06/02 03:31:44;;;;;;;5.95;1.50;;;;;;;24.57;74.75;100197.09;10453876;28;20038;-67
2023/06/02 03:36:45;;;;;;;6.07;2.00;;;;;;;25.48;72.30;100252.03;10425582;28;20134;-67
2023/06/02 03:41:46;;;;;;;3.75;1.38;;;;;;;26.15;68.85;100266.56;10418717;28;20140;-67
2023/06/02 03:46:46;;;;;;;4.07;1.67;;;;;;;26.64;67.45;100263.22;10417693;28;20048;-68
2023/06/02 03:51:47;;;;;;;3.58;1.20;;;;;;;27.26;65.74;100272.84;10418109;28;20501;-67
2023/06/02 03:56:49;;;;;;;2.42;1.30;;;;;;;27.39;64.14;100274.13;10400338;28;20080;-67
2023/06/02 04:01:50;;;;;;;5.50;1.60;;;;;;;27.56;63.21;100230.09;10400317;28;20041;-67
2023/06/02 04:06:53;;;;;;;5.55;1.60;;;;;;;27.92;62.29;100276.25;10417740;28;20061;-67
2023/06/02 04:11:54;;;;;;;5.15;1.60;;;;;;;28.31;61.62;100275.38;10449388;28;20037;-67
2023/06/02 04:16:54;;;;;;;3.85;1.60;;;;;;;27.28;63.39;100264.34;10425497;28;20527;-67
2023/06/02 04:21:55;;;;;;;6.53;1.52;;;;;;;27.56;62.62;100289.31;10417140;28;20049;-67
2023/06/02 04:26:56;;;;;;;13.23;1.90;;;;;;;27.64;62.74;100281.34;10431261;28;20037;-67
2023/06/02 04:31:57;;;;;;;4.07;1.80;;;;;;;27.61;61.62;100262.81;10416524;28;20049;-67
2023/06/02 04:36:58;;;;;;;2.88;1.63;;;;;;;27.59;61.46;100270.47;10418098;28;20120;-67
2023/06/02 04:41:59;;;;;;;5.18;1.98;;;;;;;27.33;61.92;100296.25;10437390;28;20041;-67
2023/06/02 04:47:00;;;;;;;4.07;1.95;;;;;;;27.21;61.58;100229.22;10449506;28;20053;-67
2023/06/02 04:52:04;;;;;;;4.13;1.90;;;;;;;27.44;60.63;100284.19;10449394;28;20048;-67
2023/06/02 04:57:08;;;;;;;4.35;1.70;;;;;;;27.68;59.76;100271.47;10449481;28;20043;-67
2023/06/02 05:02:09;;;;;;;4.50;2.40;;;;;;;27.27;59.53;100271.72;10451355;28;20049;-67
2023/06/02 05:07:10;;;;;;;4.80;1.88;;;;;;;27.08;59.40;100287.88;10449849;28;20068;-67
2023/06/02 05:12:11;;;;;;;6.07;1.95;;;;;;;26.79;59.72;100276.81;10450556;28;20059;-67
2023/06/02 05:17:11;;;;;;;4.18;2.22;;;;;;;26.35;62.29;100287.50;10451128;28;21031;-67
2023/06/02 05:22:12;;;;;;;4.28;2.40;;;;;;;25.86;62.57;100279.88;10447991;28;20103;-66
2023/06/02 05:27:13;;;;;;;4.68;2.03;;;;;;;25.48;62.02;100271.91;10430765;28;20140;-67
2023/06/02 05:32:14;;;;;;;4.70;2.17;;;;;;;25.26;63.03;100277.56;10416231;28;20072;-66
2023/06/02 05:37:14;;;;;;;5.05;2.22;;;;;;;25.33;63.87;100271.88;10444512;28;20047;-66
2023/06/02 05:42:15;;;;;;;5.47;2.33;;;;;;;25.54;62.89;100267.28;10456141;28;20041;-66
2023/06/02 05:47:16;;;;;;;4.97;2.60;;;;;;;24.85;63.18;100194.22;10455041;28;20036;-66
2023/06/02 05:52:17;;;;;;;5.45;2.30;;;;;;;25.32;63.88;100255.84;10454514;28;20500;-66
2023/06/02 05:57:17;;;;;;;11.82;2.70;;;;;;;25.67;64.44;100206.13;10437418;28;20585;-66
2023/06/02 06:02:18;;;;;;;5.47;2.70;;;;;;;25.76;62.36;100245.31;10429467;28;20102;-66
2023/06/02 06:07:19;;;;;;;5.32;2.58;;;;;;;25.98;62.06;100249.69;10421618;28;20065;-67
2023/06/02 06:12:21;;;;;;;4.40;2.73;;;;;;;25.82;61.87;100262.47;10423691;28;20057;-66
2023/06/02 06:17:22;;;;;;;6.50;2.60;;;;;;;26.11;62.39;100260.00;10442039;28;20067;-66
2023/06/02 06:22:23;;;;;;;3.05;2.30;;;;;;;25.94;62.50;100258.41;10447709;28;20037;-67
2023/06/02 06:27:25;;;;;;;4.30;2.20;;;;;;;26.09;60.38;100256.75;10423889;28;20136;-66
2023/06/02 06:32:26;;;;;;;8.53;2.47;;;;;;;26.03;61.30;100258.66;10419448;28;20476;-66
2023/06/02 06:37:28;;;;;;;9.68;2.47;;;;;;;26.14;60.83;100237.69;10440402;28;20463;-66
2023/06/02 06:42:28;;;;;;;7.55;2.42;;;;;;;26.73;60.52;100272.47;10449292;28;20090;-67
2023/06/02 06:47:29;;;;;;;5.13;1.90;;;;;;;26.61;58.03;100266.50;10446914;28;20048;-66
2023/06/02 06:52:30;;;;;;;3.47;2.03;;;;;;;25.96;57.07;100190.88;10446775;28;20040;-66
2023/06/02 06:57:31;;;;;;;5.07;2.17;;;;;;;26.73;57.21;100256.13;10449495;28;20041;-66
2023/06/02 07:02:32;;;;;;;6.32;2.15;;;;;;;26.47;57.32;100181.78;10430411;28;20032;-65
2023/06/02 07:07:33;;;;;;;4.57;1.67;;;;;;;26.93;56.42;100262.59;10448739;28;20056;-67
2023/06/02 07:12:34;;;;;;;4.20;2.00;;;;;;;26.57;56.19;100257.25;10453306;28;20049;-67
2023/06/02 07:17:35;;;;;;;5.40;2.10;;;;;;;26.74;57.56;100257.75;10448253;28;20041;-67
2023/06/02 07:22:36;;;;;;;21.20;3.13;;;;;;;26.75;57.42;100264.84;10454548;28;20041;-66
2023/06/02 07:27:37;;;;;;;3.85;1.80;;;;;;;26.58;56.37;100264.34;10436211;28;20048;-66
2023/06/02 07:32:38;;;;;;;6.25;1.98;;;;;;;27.01;56.80;100226.56;10455981;28;20029;-66
2023/06/02 07:37:39;;;;;;;5.50;2.10;;;;;;;27.58;57.90;100263.34;10450297;28;20137;-66
2023/06/02 07:42:39;;;;;;;8.77;2.40;;;;;;;27.84;57.95;100271.41;10455264;28;20044;-66
2023/06/02 07:47:41;;;;;;;4.57;1.90;;;;;;;28.00;55.46;100262.00;10455246;28;20136;-66
2023/06/02 07:52:41;;;;;;;3.40;1.90;;;;;;;28.10;54.94;100259.16;10455443;28;20033;-66
2023/06/02 07:57:42;;;;;;;3.72;1.80;;;;;;;28.20;54.13;100250.88;10451885;28;20506;-66
2023/06/02 08:02:49;;;;;;;4.07;1.70;;;;;;;28.01;53.05;100244.50;10454493;28;20079;-66
2023/06/02 08:07:50;;;;;;;3.00;1.70;;;;;;;27.74;53.90;100248.50;10453545;28;20135;-66
2023/06/02 08:12:50;;;;;;;5.13;1.92;;;;;;;26.81;55.76;100123.94;10454396;28;20131;-66
2023/06/02 08:17:51;;;;;;;4.53;1.70;;;;;;;27.63;56.17;100236.03;10433874;28;20065;-67
2023/06/02 08:22:52;;;;;;;4.00;1.98;;;;;;;27.39;55.98;100240.56;10453469;28;20040;-67
2023/06/02 08:27:53;;;;;;;4.72;1.65;;;;;;;27.33;55.04;100214.44;10453880;28;20520;-66
2023/06/02 08:32:54;;;;;;;5.55;1.80;;;;;;;27.20;56.44;100232.25;10451931;28;20037;-66
2023/06/02 08:37:55;;;;;;;5.88;2.00;;;;;;;26.80;57.55;100152.25;10453238;28;20123;-66
2023/06/02 08:42:57;;;;;;;4.80;2.03;;;;;;;26.61;56.78;100150.16;10450788;28;20083;-67
2023/06/02 08:47:58;;;;;;;3.65;2.15;;;;;;;27.04;57.63;100236.91;10448209;28;20041;-67
2023/06/02 08:53:03;;;;;;;6.90;2.30;;;;;;;26.89;57.95;100209.72;10451733;28;20029;-67
2023/06/02 08:58:04;;;;;;;3.80;1.92;;;;;;;26.89;57.61;100226.88;10448286;28;20563;-67
2023/06/02 09:03:05;;;;;;;3.08;1.88;;;;;;;26.85;57.05;100232.09;10452018;28;20028;-67
2023/06/02 09:08:14;;;;;;;3.40;1.83;;;;;;;26.94;57.46;100226.88;10450123;28;20383;-66
2023/06/02 09:13:32;;;;;;;14.02;2.22;;;;;;;27.55;55.93;100209.34;10452276;28;20127;-66
2023/06/02 09:18:33;;;;;;;6.60;1.90;;;;;;;27.80;56.40;100204.84;10453072;28;20519;-67
2023/06/02 09:23:44;;;;;;;4.20;2.00;;;;;;;28.21;54.41;100211.53;10451761;28;20037;-67
2023/06/02 09:28:45;;;;;;;6.00;1.73;;;;;;;28.44;55.21;100203.66;10421888;28;20072;-67
2023/06/02 09:33:58;;;;;;;4.97;1.65;;;;;;;28.55;55.87;100174.31;10411026;28;20041;-66
2023/06/02 09:38:59;;;;;;;2.90;1.67;;;;;;;28.50;54.05;100167.00;10410240;28;20042;-66
2023/06/02 09:44:00;;;;;;;3.08;1.70;;;;;;;29.22;54.10;100180.53;10410612;28;20038;-66
2023/06/02 09:49:01;;;;;;;3.22;1.60;;;;;;;29.09;52.78;100189.50;10410981;28;20042;-66
2023/06/02 09:54:04;;;;;;;3.17;1.63;;;;;;;28.57;51.78;100101.88;10411956;28;20040;-66
2023/06/02 09:59:06;;;;;;;6.47;2.15;;;;;;;28.83;53.77;100178.06;10425777;28;20132;-66
2023/06/02 10:04:07;;;;;;;4.83;1.60;;;;;;;28.50;54.30;100180.66;10420924;28;20560;-66
2023/06/02 10:09:23;;;;;;;9.13;1.98;;;;;;;28.73;55.85;100173.53;10409034;28;20061;-66
2023/06/02 10:14:37;;;;;;;5.28;1.77;;;;;;;28.71;52.77;100133.94;10410320;28;20140;-66
2023/06/02 10:20:18;;;;;;;2.63;1.50;;;;;;;29.15;50.77;100158.22;10409063;28;20073;-66
2023/06/02 10:25:38;;;;;;;3.88;1.67;;;;;;;28.60;50.25;100142.28;10409555;28;20045;-66
2023/06/02 10:30:39;;;;;;;4.43;1.90;;;;;;;28.04;52.71;100153.81;10409643;28;20401;-66
2023/06/02 10:36:00;;;;;;;2.75;1.67;;;;;;;28.17;51.40;100079.38;10409792;28;20501;-67
2023/06/02 10:41:01;;;;;;;3.75;1.70;;;;;;;28.53;51.47;100083.63;10408675;28;20052;-67
2023/06/02 10:46:21;;;;;;;5.90;1.90;;;;;;;29.03;51.44;100128.59;10394760;28;20049;-67
2023/06/02 10:51:22;;;;;;;3.45;1.73;;;;;;;29.17;51.19;100141.50;10417368;28;20045;-66
2023/06/02 10:56:35;;;;;;;3.15;1.40;;;;;;;29.41;49.55;100127.75;10416441;28;20049;-66
2023/06/02 11:01:46;;;;;;;3.70;1.50;;;;;;;29.54;48.42;100130.50;10399655;28;20048;-67
2023/06/02 11:06:47;;;;;;;4.07;1.90;;;;;;;29.50;49.60;100139.63;10398928;28;20088;-66
2023/06/02 11:11:53;;;;;;;3.25;1.60;;;;;;;29.54;48.21;100135.16;10416996;28;20152;-66
2023/06/02 11:17:30;;;;;;;5.68;1.83;;;;;;;29.83;47.65;100134.97;10416823;28;20528;-66
2023/06/02 11:22:33;;;;;;;3.47;1.60;;;;;;;30.06;48.07;100143.31;10411023;28;20072;-66
2023/06/02 11:27:36;;;;;;;5.88;1.60;;;;;;;30.15;47.68;100144.22;10429727;28;20542;-66
2023/06/02 11:32:37;;;;;;;35.17;3.03;;;;;;;30.29;49.02;100141.53;10419263;28;20559;-66
2023/06/02 11:37:41;;;;;;;3.78;1.58;;;;;;;30.02;47.27;100162.28;10418190;28;20069;-66
2023/06/02 11:42:43;;;;;;;28.35;3.47;;;;;;;29.38;48.70;100088.09;10418158;28;20056;-66
2023/06/02 11:47:46;;;;;;;8.68;1.70;;;;;;;29.65;49.04;100144.88;10413214;28;20048;-66
2023/06/02 11:52:47;;;;;;;7.55;1.85;;;;;;;29.26;49.73;100124.16;10431957;28;20048;-66
2023/06/02 11:57:48;;;;;;;6.20;2.25;;;;;;;29.40;50.59;100150.72;10407900;28;20049;-67
2023/06/02 12:02:51;;;;;;;9.02;2.00;;;;;;;29.01;51.20;100160.84;10446721;28;20136;-66
2023/06/02 12:07:52;;;;;;;3.20;1.50;;;;;;;28.15;51.98;100102.63;10436485;28;20061;-66
2023/06/02 12:12:53;;;;;;;5.55;1.88;;;;;;;27.79;52.11;100091.28;10400924;28;20038;-66
2023/06/02 12:17:54;;;;;;;3.38;1.60;;;;;;;28.02;51.29;100175.13;10417378;28;20405;-66
2023/06/02 12:22:54;;;;;;;9.80;2.17;;;;;;;27.95;53.77;100171.94;10416574;28;20039;-67
2023/06/02 12:28:11;;;;;;;4.22;1.55;;;;;;;27.67;53.52;100114.31;10399315;28;20064;-66
2023/06/02 12:33:12;;;;;;;22.17;2.55;;;;;;;27.58;54.98;100093.38;10416981;28;20044;-66
2023/06/02 12:38:14;;;;;;;7.20;2.13;;;;;;;28.05;54.72;100174.56;10416275;28;20053;-67
2023/06/02 12:43:16;;;;;;;2.97;1.70;;;;;;;27.53;53.30;100099.69;10416678;28;20493;-66
2023/06/02 12:48:17;;;;;;;3.22;1.70;;;;;;;27.68;53.56;100139.69;10416275;28;20045;-66
2023/06/02 12:53:18;;;;;;;3.35;1.70;;;;;;;27.60;53.71;100127.47;10427811;28;20037;-66
2023/06/02 12:58:19;;;;;;;6.20;1.77;;;;;;;27.76;54.40;100152.69;10424224;28;20045;-66
2023/06/02 13:03:19;;;;;;;49.38;5.53;;;;;;;27.79;55.89;100129.50;10418518;28;20485;-66
2023/06/02 13:08:20;;;;;;;2.85;1.67;;;;;;;27.92;53.16;100126.09;10414447;28;20053;-66
2023/06/02 13:13:21;;;;;;;3.10;1.40;;;;;;;27.79;52.96;100104.94;10415254;28;20068;-66
2023/06/02 13:18:23;;;;;;;4.13;1.90;;;;;;;27.70;53.93;100101.97;10414870;28;20405;-66
2023/06/02 13:23:24;;;;;;;4.20;2.10;;;;;;;27.77;54.72;100121.56;10397645;28;20053;-66
2023/06/02 13:28:25;;;;;;;3.80;1.83;;;;;;;27.75;54.38;100113.66;10415721;28;20037;-67
2023/06/02 13:33:26;;;;;;;3.97;1.70;;;;;;;27.73;54.66;100104.97;10414498;28;20515;-66
2023/06/02 13:38:26;;;;;;;2.97;1.50;;;;;;;27.77;53.71;100106.00;10413928;28;20064;-66
2023/06/02 13:43:27;;;;;;;2.58;1.50;;;;;;;26.93;53.11;99966.31;10413825;28;20069;-67
2023/06/02 13:48:29;;;;;;;3.88;1.60;;;;;;;27.66;52.71;100092.75;10396701;28;20038;-66
2023/06/02 13:53:30;;;;;;;4.47;1.50;;;;;;;27.64;53.23;100093.06;10413441;28;20087;-66
2023/06/02 13:58:35;;;;;;;2.65;1.40;;;;;;;27.66;54.77;100096.28;10414019;28;20037;-66
2023/06/02 14:03:36;;;;;;;3.65;1.30;;;;;;;27.55;53.71;100078.38;10413837;28;20053;-66
2023/06/02 14:08:36;;;;;;;3.90;1.38;;;;;;;27.63;53.09;100077.75;10423716;28;20530;-66
2023/06/02 14:13:37;;;;;;;3.42;1.40;;;;;;;27.69;52.46;100064.88;10413366;28;20046;-66
2023/06/02 14:18:38;;;;;;;3.00;1.40;;;;;;;27.74;52.40;100068.38;10412716;28;20037;-66
2023/06/02 14:23:39;;;;;;;5.65;1.52;;;;;;;27.59;53.52;100054.91;10413102;28;20052;-66
2023/06/02 14:28:39;;;;;;;18.60;2.80;;;;;;;27.48;54.41;100067.00;10412372;28;20037;-66
2023/06/02 14:33:40;;;;;;;4.88;1.75;;;;;;;27.22;54.96;100067.25;10430291;28;20158;-66
2023/06/02 14:38:41;;;;;;;4.50;1.90;;;;;;;27.09;56.44;100082.28;10421741;28;20053;-66
2023/06/02 14:43:42;;;;;;;4.47;1.52;;;;;;;26.98;56.67;100086.22;10420962;28;20512;-66
2023/06/02 14:48:43;;;;;;;2.72;1.40;;;;;;;26.98;57.22;100097.13;10412323;28;20133;-67
2023/06/02 14:53:44;;;;;;;3.53;1.92;;;;;;;26.82;57.55;100096.38;10396541;28;20038;-66
2023/06/02 14:58:45;;;;;;;5.18;1.70;;;;;;;26.81;57.21;100111.09;10412749;28;20041;-66
2023/06/02 15:03:46;;;;;;;5.70;1.75;;;;;;;26.79;57.49;100107.84;10413612;28;20575;-66
2023/06/02 15:08:47;;;;;;;5.50;1.80;;;;;;;26.35;56.82;100036.94;10412393;28;20054;-66
2023/06/02 15:13:47;;;;;;;3.95;1.58;;;;;;;26.88;57.18;100132.59;10412659;28;20064;-66
2023/06/02 15:18:48;;;;;;;5.93;1.58;;;;;;;26.73;56.61;100116.34;10411474;28;20053;-66
2023/06/02 15:23:49;;;;;;;5.50;1.58;;;;;;;26.67;57.17;100125.63;10412684;28;20493;-66
2023/06/02 15:28:50;;;;;;;6.68;1.75;;;;;;;26.50;58.67;100117.78;10411287;28;20042;-66
2023/06/02 15:33:51;;;;;;;4.65;1.60;;;;;;;26.42;59.32;100144.50;10416813;28;20409;-66
2023/06/02 15:38:51;;;;;;;13.32;1.95;;;;;;;26.26;60.34;100148.34;10401302;28;20079;-66
2023/06/02 15:43:52;;;;;;;7.18;1.75;;;;;;;25.68;62.41;100080.69;10418169;28;20424;-66
2023/06/02 15:48:53;;;;;;;5.85;2.03;;;;;;;25.96;63.76;100160.94;10425255;28;20086;-66
2023/06/02 15:53:54;;;;;;;6.28;2.13;;;;;;;25.91;64.87;100181.94;10422271;28;20045;-66
2023/06/02 15:58:55;;;;;;;9.35;2.05;;;;;;;25.81;66.25;100174.53;10400040;28;20073;-66
2023/06/02 16:03:55;;;;;;;12.82;2.58;;;;;;;25.27;66.93;100110.63;10418575;28;20048;-66
2023/06/02 16:08:56;;;;;;;6.65;2.20;;;;;;;25.57;67.35;100168.03;10410892;28;20061;-66
2023/06/02 16:13:57;;;;;;;6.45;1.90;;;;;;;25.41;67.78;100165.28;10417221;28;20037;-66
2023/06/02 16:18:58;;;;;;;7.10;2.00;;;;;;;25.35;68.10;100177.25;10399062;28;20056;-67
2023/06/02 16:23:58;;;;;;;4.43;2.17;;;;;;;24.80;68.38;100106.19;10427475;28;20075;-67
2023/06/02 16:28:59;;;;;;;4.35;1.80;;;;;;;25.15;68.90;100167.16;10399412;28;20160;-67
2023/06/02 16:34:00;;;;;;;5.18;1.73;;;;;;;24.91;68.36;100144.25;10416958;28;20057;-68
2023/06/02 16:39:02;;;;;;;10.80;2.55;;;;;;;25.05;68.85;100170.66;10416713;28;20045;-67
2023/06/02 16:44:03;;;;;;;11.80;2.58;;;;;;;24.58;69.04;100094.72;10416849;28;20056;-67
2023/06/02 16:49:03;;;;;;;4.60;2.40;;;;;;;24.84;69.25;100149.94;10432610;28;20040;-67
2023/06/02 16:54:05;;;;;;;8.00;3.00;;;;;;;24.19;69.78;100072.53;10432390;28;20408;-67
2023/06/02 16:59:06;;;;;;;5.53;2.58;;;;;;;24.60;70.79;100171.31;10446759;28;20033;-67
2023/06/02 17:04:06;;;;;;;6.88;2.80;;;;;;;24.31;71.97;100152.66;10452850;28;20110;-67
2023/06/02 17:09:08;;;;;;;10.15;2.80;;;;;;;24.27;73.61;100169.75;10453373;28;20057;-67
2023/06/02 17:14:09;;;;;;;7.50;2.70;;;;;;;24.19;74.81;100186.53;10452728;28;20052;-67
2023/06/02 17:19:11;;;;;;;9.18;2.60;;;;;;;23.99;75.43;100181.78;10438766;28;20052;-68
2023/06/02 17:24:12;;;;;;;9.43;3.53;;;;;;;23.31;76.36;100095.56;10436439;28;20037;-67
2023/06/02 17:29:14;;;;;;;15.80;6.53;;;;;;;23.76;77.78;100200.06;10455361;28;20088;-67
2023/06/02 17:34:15;;;;;;;11.32;4.40;;;;;;;23.64;78.77;100219.19;10454999;28;20071;-67
2023/06/02 17:39:16;;;;;;;9.57;4.30;;;;;;;23.57;79.17;100220.47;10435197;28;20076;-67
2023/06/02 17:44:16;;;;;;;5.82;3.08;;;;;;;23.62;77.64;100221.34;10434575;28;20119;-68
2023/06/02 17:49:17;;;;;;;4.65;2.20;;;;;;;23.46;76.08;100206.81;10445419;28;20072;-67
2023/06/02 17:54:18;;;;;;;3.60;1.77;;;;;;;23.28;74.18;100214.50;10453142;28;20086;-67
2023/06/02 17:59:19;;;;;;;2.65;1.35;;;;;;;23.19;74.24;100223.09;10453283;28;20496;-67
2023/06/02 18:04:20;;;;;;;2.35;1.50;;;;;;;23.00;74.49;100229.88;10451970;28;20041;-68
2023/06/02 18:09:22;;;;;;;3.30;1.48;;;;;;;22.84;74.72;100225.34;10447027;28;20041;-67
2023/06/02 18:14:23;;;;;;;4.40;1.90;;;;;;;22.30;73.71;100178.06;10450809;28;20080;-68
2023/06/02 18:19:24;;;;;;;3.47;1.98;;;;;;;21.60;73.17;100124.53;10451320;28;20048;-68
2023/06/02 18:24:24;;;;;;;4.95;2.28;;;;;;;22.01;74.47;100239.56;10448525;28;20040;-67
2023/06/02 18:29:25;;;;;;;6.43;2.30;;;;;;;21.51;75.36;100169.22;10451111;28;20036;-68
2023/06/02 18:34:26;;;;;;;4.32;1.85;;;;;;;21.68;77.04;100204.41;10446130;28;20041;-67
2023/06/02 18:39:27;;;;;;;4.43;2.28;;;;;;;21.49;78.32;100209.22;10452540;28;20037;-67
2023/06/02 18:44:28;;;;;;;3.55;1.80;;;;;;;20.79;79.56;100113.06;10451876;28;20032;-68
2023/06/02 18:49:29;;;;;;;3.20;1.65;;;;;;;20.80;80.36;100144.44;10448716;28;20032;-67
2023/06/02 18:54:30;;;;;;;5.00;1.60;;;;;;;20.76;80.06;100146.78;10450057;28;20036;-70
2023/06/02 18:59:31;;;;;;;3.20;1.40;;;;;;;21.22;80.26;100231.38;10451476;28;20037;-67
2023/06/02 19:04:32;;;;;;;3.80;1.70;;;;;;;21.19;80.92;100248.91;10437645;28;20033;-65
2023/06/02 19:09:33;;;;;;;3.20;1.17;;;;;;;20.24;81.04;100099.00;10452303;28;20057;-65
2023/06/02 19:14:33;;;;;;;3.13;1.38;;;;;;;21.08;81.59;100246.22;10458274;28;20040;-65
2023/06/02 19:19:34;;;;;;;2.47;1.10;;;;;;;21.00;82.46;100254.69;10460512;28;20045;-64
2023/06/02 19:24:35;;;;;;;2.97;1.27;;;;;;;20.82;83.78;100258.38;10460438;28;20033;-67
2023/06/02 19:29:36;;;;;;;3.00;1.60;;;;;;;20.52;86.21;100268.28;10461296;28;20064;-65
2023/06/02 19:34:36;;;;;;;5.30;2.20;;;;;;;20.08;88.23;100248.06;10452714;28;20040;-67
2023/06/02 19:39:37;;;;;;;11.48;1.90;;;;;;;19.15;89.84;100069.00;10422351;28;20099;-68
2023/06/02 19:44:42;;;;;;;4.25;1.50;;;;;;;19.96;92.37;100172.56;10460174;28;20126;-68
2023/06/02 19:49:42;;;;;;;5.80;1.40;;;;;;;19.64;93.48;100122.69;10459633;28;20071;-67
2023/06/02 19:54:45;;;;;;;3.08;1.60;;;;;;;19.88;92.29;100189.06;10459157;28;20102;-68
2023/06/02 19:59:48;;;;;;;3.00;1.33;;;;;;;20.09;91.51;100216.53;10459137;28;20412;-67
2023/06/02 20:04:49;;;;;;;5.28;1.73;;;;;;;20.18;91.00;100226.72;10459265;28;20041;-67
2023/06/02 20:09:52;;;;;;;2.53;1.50;;;;;;;20.20;91.45;100218.41;10459421;28;20053;-68
2023/06/02 20:14:53;;;;;;;4.70;1.42;;;;;;;20.33;92.56;100242.44;10459026;28;20389;-68
2023/06/02 20:19:55;;;;;;;5.45;2.00;;;;;;;20.25;94.62;100240.06;10458177;28;20033;-67
2023/06/02 20:24:56;;;;;;;8.93;5.10;;;;;;;20.14;95.34;100228.25;10459095;28;20044;-68
2023/06/02 20:29:56;;;;;;;5.03;3.22;;;;;;;20.15;96.45;100237.16;10440545;28;20037;-68
2023/06/02 20:34:57;;;;;;;6.03;1.90;;;;;;;19.75;97.08;100189.28;10458886;28;20051;-68
2023/06/02 20:39:58;;;;;;;2.85;2.00;;;;;;;20.02;98.15;100298.34;10457868;28;20094;-68
2023/06/02 20:44:59;;;;;;;3.47;1.67;;;;;;;20.06;98.03;100313.00;10457251;28;20098;-68
2023/06/02 20:50:00;;;;;;;7.32;1.50;;;;;;;20.13;97.78;100296.72;10458091;28;20523;-68
2023/06/02 20:55:00;;;;;;;3.55;1.70;;;;;;;20.04;97.59;100261.19;10457441;28;20189;-68
2023/06/02 21:00:04;;;;;;;3.35;1.77;;;;;;;19.53;97.83;100197.91;10457295;28;20076;-68
2023/06/02 21:05:07;;;;;;;3.97;1.90;;;;;;;20.04;98.45;100271.13;10456924;28;20120;-68
2023/06/02 21:10:08;;;;;;;3.65;1.80;;;;;;;20.00;98.90;100249.22;10413699;28;20061;-68
2023/06/02 21:15:10;;;;;;;3.85;1.80;;;;;;;19.97;99.51;100254.25;10414795;28;20119;-68
2023/06/02 21:20:10;;;;;;;4.13;1.98;;;;;;;19.89;99.50;100249.19;10415294;28;20052;-68
2023/06/02 21:25:11;;;;;;;7.53;1.80;;;;;;;19.29;99.44;100161.16;10415075;28;20400;-68
2023/06/02 21:30:13;;;;;;;3.22;1.80;;;;;;;19.75;99.47;100246.72;10413914;28;20570;-68
2023/06/02 21:35:16;;;;;;;3.95;1.70;;;;;;;19.21;98.68;100193.81;10414473;28;20041;-68
2023/06/02 21:40:17;;;;;;;2.78;1.67;;;;;;;19.60;98.94;100260.59;10414572;28;20455;-68
2023/06/02 21:45:18;;;;;;;3.13;1.70;;;;;;;19.51;99.23;100253.88;10397799;28;20188;-68
2023/06/02 21:50:19;;;;;;;2.47;1.58;;;;;;;19.45;99.29;100235.13;10412221;28;20046;-68
2023/06/02 21:55:20;;;;;;;3.22;1.50;;;;;;;18.52;99.19;100094.47;10385483;28;20040;-68
2023/06/02 22:00:21;;;;;;;5.65;1.75;;;;;;;19.26;99.25;100220.84;10373339;28;20379;-68
2023/06/02 22:05:22;;;;;;;4.32;2.35;;;;;;;19.12;99.83;100207.56;10380089;28;20041;-68
2023/06/02 22:10:22;;;;;;;4.80;2.20;;;;;;;18.77;100.00;100171.59;10443180;28;20517;-68
2023/06/02 22:15:23;;;;;;;5.40;1.77;;;;;;;18.83;100.00;100211.06;10453850;28;20551;-68
2023/06/02 22:20:25;;;;;;;3.53;1.75;;;;;;;18.25;100.00;100102.84;10453962;28;20045;-68
2023/06/02 22:25:25;;;;;;;8.45;2.28;;;;;;;18.36;100.00;100130.84;10454007;28;20522;-68
2023/06/02 22:30:26;;;;;;;7.57;2.13;;;;;;;18.61;100.00;100176.50;10432568;28;20041;-68
2023/06/02 22:35:27;;;;;;;4.55;2.08;;;;;;;18.69;100.00;100203.09;10413090;28;20044;-68
2023/06/02 22:40:28;;;;;;;5.25;2.38;;;;;;;18.67;100.00;100201.69;10414054;28;20401;-68
2023/06/02 22:45:29;;;;;;;4.47;2.38;;;;;;;18.57;100.00;100212.13;10421926;28;20037;-68
2023/06/02 22:50:30;;;;;;;7.78;2.63;;;;;;;18.43;100.00;100196.16;10421650;28;20541;-68
2023/06/02 22:55:31;;;;;;;4.78;2.38;;;;;;;18.52;100.00;100204.75;10420822;28;20039;-68
2023/06/02 23:00:32;;;;;;;4.13;2.20;;;;;;;18.43;100.00;100211.47;10420653;28;20060;-68